sensor_id;sensor_type;location;lat;lon;timestamp;pressure;altitude;pressure_sealevel;temperature;humidity
46347;BME280;32057;47.830;19.046;2023-07-30T00:01:34;99776.88;;;18.49;100.00
46347;BME280;32057;47.830;19.046;2023-07-30T00:03:59;99771.56;;;18.50;100.00
46347;BME280;32057;47.830;19.046;2023-07-30T00:06:25;99760.28;;;18.45;100.00
46347;BME280;32057;47.830;19.046;2023-07-30T00:08:50;99757.69;;;18.42;100.00
46347;BME280;32057;47.830;19.046;2023-07-30T00:11:16;99763.69;;;18.49;100.00
46347;BME280;32057;47.830;19.046;2023-07-30T00:13:42;99763.81;;;18.44;100.00
46347;BME280;32057;47.830;19.046;2023-07-30T00:16:07;99768.38;;;18.36;100.00
46347;BME280;32057;47.830;19.046;2023-07-30T00:18:32;99774.44;;;18.41;100.00
46347;BME280;32057;47.830;19.046;2023-07-30T00:20:58;99784.00;;;18.45;100.00
46347;BME280;32057;47.830;19.046;2023-07-30T00:23:23;99784.75;;;18.50;100.00
46347;BME280;32057;47.830;19.046;2023-07-30T00:25:48;99786.50;;;18.51;100.00
46347;BME280;32057;47.830;19.046;2023-07-30T00:28:14;99782.97;;;18.51;100.00
46347;BME280;32057;47.830;19.046;2023-07-30T00:30:39;99785.53;;;18.56;100.00
46347;BME280;32057;47.830;19.046;2023-07-30T00:33:05;99790.66;;;18.62;100.00
46347;BME280;32057;47.830;19.046;2023-07-30T00:35:30;99776.53;;;18.66;100.00
46347;BME280;32057;47.830;19.046;2023-07-30T00:37:55;99778.22;;;18.68;100.00
46347;BME280;32057;47.830;19.046;2023-07-30T00:40:21;99779.84;;;18.74;100.00
46347;BME280;32057;47.830;19.046;2023-07-30T00:42:46;99781.50;;;18.81;100.00
46347;BME280;32057;47.830;19.046;2023-07-30T00:45:11;99779.47;;;18.93;100.00
46347;BME280;32057;47.830;19.046;2023-07-30T00:47:37;99778.94;;;19.17;100.00
46347;BME280;32057;47.830;19.046;2023-07-30T00:50:05;99776.66;;;19.38;100.00
46347;BME280;32057;47.830;19.046;2023-07-30T00:52:32;99779.59;;;19.61;100.00
46347;BME280;32057;47.830;19.046;2023-07-30T00:54:58;99787.13;;;19.77;100.00
46347;BME280;32057;47.830;19.046;2023-07-30T00:57:26;99779.03;;;19.83;100.00
46347;BME280;32057;47.830;19.046;2023-07-30T00:59:51;99773.63;;;19.89;100.00
46347;BME280;32057;47.830;19.046;2023-07-30T01:02:17;99767.38;;;19.92;100.00
46347;BME280;32057;47.830;19.046;2023-07-30T01:04:43;99764.72;;;19.93;100.00
46347;BME280;32057;47.830;19.046;2023-07-30T01:07:09;99753.91;;;20.01;100.00
46347;BME280;32057;47.830;19.046;2023-07-30T01:09:34;99760.75;;;20.09;100.00
46347;BME280;32057;47.830;19.046;2023-07-30T01:12:01;99749.81;;;20.22;100.00
46347;BME280;32057;47.830;19.046;2023-07-30T01:14:28;99748.06;;;20.21;100.00
46347;BME280;32057;47.830;19.046;2023-07-30T01:16:54;99740.03;;;20.25;100.00
46347;BME280;32057;47.830;19.046;2023-07-30T01:19:19;99739.06;;;20.28;100.00
46347;BME280;32057;47.830;19.046;2023-07-30T01:21:44;99745.84;;;20.37;100.00
46347;BME280;32057;47.830;19.046;2023-07-30T01:24:10;99738.88;;;20.34;100.00
46347;BME280;32057;47.830;19.046;2023-07-30T01:26:45;99733.66;;;20.33;100.00
46347;BME280;32057;47.830;19.046;2023-07-30T01:29:14;99736.28;;;20.33;100.00
46347;BME280;32057;47.830;19.046;2023-07-30T01:31:43;99733.72;;;20.31;100.00
46347;BME280;32057;47.830;19.046;2023-07-30T01:34:09;99737.19;;;20.33;100.00
46347;BME280;32057;47.830;19.046;2023-07-30T01:36:37;99727.28;;;20.40;100.00
46347;BME280;32057;47.830;19.046;2023-07-30T01:39:04;99717.69;;;20.37;100.00
46347;BME280;32057;47.830;19.046;2023-07-30T01:41:30;99721.13;;;20.39;100.00
46347;BME280;32057;47.830;19.046;2023-07-30T01:43:55;99723.66;;;20.42;100.00
46347;BME280;32057;47.830;19.046;2023-07-30T01:46:20;99713.03;;;20.45;100.00
46347;BME280;32057;47.830;19.046;2023-07-30T01:48:46;99720.09;;;20.45;100.00
46347;BME280;32057;47.830;19.046;2023-07-30T01:51:11;99720.94;;;20.45;100.00
46347;BME280;32057;47.830;19.046;2023-07-30T01:53:37;99717.44;;;20.45;100.00
46347;BME280;32057;47.830;19.046;2023-07-30T01:56:02;99718.31;;;20.45;100.00
46347;BME280;32057;47.830;19.046;2023-07-30T01:58:27;99725.47;;;20.42;100.00
46347;BME280;32057;47.830;19.046;2023-07-30T02:00:53;99721.88;;;20.43;100.00
46347;BME280;32057;47.830;19.046;2023-07-30T02:03:18;99729.88;;;20.41;100.00
46347;BME280;32057;47.830;19.046;2023-07-30T02:05:44;99728.06;;;20.43;100.00
46347;BME280;32057;47.830;19.046;2023-07-30T02:08:09;99735.06;;;20.44;100.00
46347;BME280;32057;47.830;19.046;2023-07-30T02:10:35;99725.47;;;20.42;100.00
46347;BME280;32057;47.830;19.046;2023-07-30T02:13:00;99731.63;;;20.41;100.00
46347;BME280;32057;47.830;19.046;2023-07-30T02:15:25;99729.09;;;20.38;100.00
46347;BME280;32057;47.830;19.046;2023-07-30T02:17:51;99725.69;;;20.34;100.00
46347;BME280;32057;47.830;19.046;2023-07-30T02:20:16;99719.56;;;20.32;100.00
46347;BME280;32057;47.830;19.046;2023-07-30T02:22:41;99727.53;;;20.30;100.00
46347;BME280;32057;47.830;19.046;2023-07-30T02:25:07;99721.44;;;20.28;100.00
46347;BME280;32057;47.830;19.046;2023-07-30T02:27:32;99718.00;;;20.25;100.00
46347;BME280;32057;47.830;19.046;2023-07-30T02:29:58;99714.63;;;20.21;100.00
46347;BME280;32057;47.830;19.046;2023-07-30T02:32:23;99722.59;;;20.20;100.00
46347;BME280;32057;47.830;19.046;2023-07-30T02:34:49;99723.47;;;20.19;100.00
46347;BME280;32057;47.830;19.046;2023-07-30T02:37:14;99714.72;;;20.17;100.00
46347;BME280;32057;47.830;19.046;2023-07-30T02:39:39;99721.84;;;20.15;100.00
46347;BME280;32057;47.830;19.046;2023-07-30T02:42:06;99725.38;;;20.15;100.00
46347;BME280;32057;47.830;19.046;2023-07-30T02:44:31;99734.16;;;20.16;100.00
46347;BME280;32057;47.830;19.046;2023-07-30T02:46:56;99728.88;;;20.16;100.00
46347;BME280;32057;47.830;19.046;2023-07-30T02:49:22;99736.56;;;20.23;100.00
46347;BME280;32057;47.830;19.046;2023-07-30T02:51:47;99734.75;;;20.25;100.00
46347;BME280;32057;47.830;19.046;2023-07-30T02:54:14;99730.41;;;20.23;100.00
46347;BME280;32057;47.830;19.046;2023-07-30T02:56:42;99734.16;;;20.16;100.00
46347;BME280;32057;47.830;19.046;2023-07-30T02:59:07;99727.28;;;20.08;100.00
46347;BME280;32057;47.830;19.046;2023-07-30T03:01:33;99721.28;;;20.03;100.00
46347;BME280;32057;47.830;19.046;2023-07-30T03:03:58;99724.03;;;19.99;100.00
46347;BME280;32057;47.830;19.046;2023-07-30T03:06:23;99710.09;;;19.95;100.00
46347;BME280;32057;47.830;19.046;2023-07-30T03:08:49;99713.72;;;19.91;100.00
46347;BME280;32057;47.830;19.046;2023-07-30T03:11:14;99724.28;;;19.91;100.00
46347;BME280;32057;47.830;19.046;2023-07-30T03:13:40;99726.09;;;19.89;100.00
46347;BME280;32057;47.830;19.046;2023-07-30T03:16:05;99728.84;;;19.84;100.00
46347;BME280;32057;47.830;19.046;2023-07-30T03:18:30;99721.06;;;19.80;100.00
46347;BME280;32057;47.830;19.046;2023-07-30T03:21:00;99720.28;;;19.76;100.00
46347;BME280;32057;47.830;19.046;2023-07-30T03:23:26;99714.13;;;19.76;100.00
46347;BME280;32057;47.830;19.046;2023-07-30T03:25:51;99716.00;;;19.70;100.00
46347;BME280;32057;47.830;19.046;2023-07-30T03:28:17;99724.00;;;19.67;100.00
46347;BME280;32057;47.830;19.046;2023-07-30T03:30:42;99724.28;;;19.57;100.00
46347;BME280;32057;47.830;19.046;2023-07-30T03:33:07;99732.19;;;19.57;100.00
46347;BME280;32057;47.830;19.046;2023-07-30T03:35:33;99726.06;;;19.56;100.00
46347;BME280;32057;47.830;19.046;2023-07-30T03:37:58;99737.44;;;19.58;100.00
46347;BME280;32057;47.830;19.046;2023-07-30T03:40:24;99743.50;;;19.62;100.00
46347;BME280;32057;47.830;19.046;2023-07-30T03:42:49;99739.88;;;19.66;100.00
46347;BME280;32057;47.830;19.046;2023-07-30T03:45:15;99733.63;;;19.68;100.00
46347;BME280;32057;47.830;19.046;2023-07-30T03:47:40;99725.72;;;19.68;100.00
46347;BME280;32057;47.830;19.046;2023-07-30T03:50:06;99731.78;;;19.74;100.00
46347;BME280;32057;47.830;19.046;2023-07-30T03:52:31;99730.84;;;19.76;100.00
46347;BME280;32057;47.830;19.046;2023-07-30T03:54:57;99724.59;;;19.79;100.00
46347;BME280;32057;47.830;19.046;2023-07-30T03:57:22;99735.25;;;19.76;100.00
46347;BME280;32057;47.830;19.046;2023-07-30T03:59:47;99743.06;;;19.79;100.00
46347;BME280;32057;47.830;19.046;2023-07-30T04:02:13;99733.34;;;19.81;100.00
46347;BME280;32057;47.830;19.046;2023-07-30T04:04:42;99744.72;;;19.83;100.00
46347;BME280;32057;47.830;19.046;2023-07-30T04:07:09;99742.88;;;19.86;100.00
46347;BME280;32057;47.830;19.046;2023-07-30T04:09:35;99741.03;;;19.90;100.00
46347;BME280;32057;47.830;19.046;2023-07-30T04:12:00;99739.16;;;19.94;100.00
46347;BME280;32057;47.830;19.046;2023-07-30T04:14:26;99739.13;;;19.95;100.00
46347;BME280;32057;47.830;19.046;2023-07-30T04:16:51;99741.66;;;19.98;100.00
46347;BME280;32057;47.830;19.046;2023-07-30T04:19:16;99739.00;;;20.00;100.00
46347;BME280;32057;47.830;19.046;2023-07-30T04:21:42;99749.53;;;20.01;100.00
46347;BME280;32057;47.830;19.046;2023-07-30T04:24:07;99757.44;;;20.01;100.00
46347;BME280;32057;47.830;19.046;2023-07-30T04:26:32;99746.88;;;20.01;100.00
46347;BME280;32057;47.830;19.046;2023-07-30T04:28:58;99752.91;;;20.05;100.00
46347;BME280;32057;47.830;19.046;2023-07-30T04:31:23;99747.56;;;20.08;100.00
46347;BME280;32057;47.830;19.046;2023-07-30T04:33:49;99748.44;;;20.08;100.00
46347;BME280;32057;47.830;19.046;2023-07-30T04:36:14;99748.44;;;20.08;100.00
46347;BME280;32057;47.830;19.046;2023-07-30T04:38:39;99741.44;;;20.07;100.00
46347;BME280;32057;47.830;19.046;2023-07-30T04:41:05;99744.88;;;20.09;100.00
46347;BME280;32057;47.830;19.046;2023-07-30T04:43:30;99746.59;;;20.10;100.00
46347;BME280;32057;47.830;19.046;2023-07-30T04:45:56;99745.72;;;20.12;100.00
46347;BME280;32057;47.830;19.046;2023-07-30T04:48:21;99742.97;;;20.15;100.00
46347;BME280;32057;47.830;19.046;2023-07-30T04:50:47;99744.72;;;20.16;100.00
46347;BME280;32057;47.830;19.046;2023-07-30T04:53:12;99742.97;;;20.15;100.00
46347;BME280;32057;47.830;19.046;2023-07-30T04:55:38;99745.56;;;20.16;100.00
46347;BME280;32057;47.830;19.046;2023-07-30T04:58:03;99745.56;;;20.16;100.00
46347;BME280;32057;47.830;19.046;2023-07-30T05:00:29;99745.53;;;20.18;100.00
46347;BME280;32057;47.830;19.046;2023-07-30T05:02:55;99750.72;;;20.21;100.00
46347;BME280;32057;47.830;19.046;2023-07-30T05:05:20;99751.53;;;20.23;100.00
46347;BME280;32057;47.830;19.046;2023-07-30T05:07:45;99755.88;;;20.25;100.00
46347;BME280;32057;47.830;19.046;2023-07-30T05:10:11;99760.22;;;20.28;100.00
46347;BME280;32057;47.830;19.046;2023-07-30T05:12:37;99748.69;;;20.30;100.00
46347;BME280;32057;47.830;19.046;2023-07-30T05:15:03;99751.22;;;20.35;100.00
46347;BME280;32057;47.830;19.046;2023-07-30T05:17:29;99763.41;;;20.39;100.00
46347;BME280;32057;47.830;19.046;2023-07-30T05:19:54;99771.19;;;20.44;100.00
46347;BME280;32057;47.830;19.046;2023-07-30T05:22:20;99771.13;;;20.47;100.00
46347;BME280;32057;47.830;19.046;2023-07-30T05:24:45;99764.88;;;20.49;100.00
46347;BME280;32057;47.830;19.046;2023-07-30T05:27:10;99759.47;;;20.53;100.00
46347;BME280;32057;47.830;19.046;2023-07-30T05:29:36;99757.66;;;20.55;100.00
46347;BME280;32057;47.830;19.046;2023-07-30T05:32:01;99761.06;;;20.60;100.00
46347;BME280;32057;47.830;19.046;2023-07-30T05:34:27;99755.69;;;20.63;100.00
46347;BME280;32057;47.830;19.046;2023-07-30T05:36:52;99750.31;;;20.66;100.00
46347;BME280;32057;47.830;19.046;2023-07-30T05:39:17;99745.81;;;20.69;100.00
46347;BME280;32057;47.830;19.046;2023-07-30T05:41:43;99752.69;;;20.75;100.00
46347;BME280;32057;47.830;19.046;2023-07-30T05:44:08;99747.25;;;20.80;100.00
46347;BME280;32057;47.830;19.046;2023-07-30T05:46:33;99748.84;;;20.85;100.00
46347;BME280;32057;47.830;19.046;2023-07-30T05:48:59;99754.13;;;20.85;100.00
46347;BME280;32057;47.830;19.046;2023-07-30T05:51:25;99750.56;;;20.86;100.00
46347;BME280;32057;47.830;19.046;2023-07-30T05:53:50;99750.63;;;20.85;100.00
46347;BME280;32057;47.830;19.046;2023-07-30T05:56:15;99748.94;;;20.82;100.00
46347;BME280;32057;47.830;19.046;2023-07-30T05:58:43;99751.56;;;20.82;100.00
46347;BME280;32057;47.830;19.046;2023-07-30T06:01:09;99748.94;;;20.82;100.00
46347;BME280;32057;47.830;19.046;2023-07-30T06:03:34;99755.03;;;20.84;100.00
46347;BME280;32057;47.830;19.046;2023-07-30T06:06:01;99762.91;;;20.86;100.00
46347;BME280;32057;47.830;19.046;2023-07-30T06:08:26;99757.59;;;20.87;100.00
46347;BME280;32057;47.830;19.046;2023-07-30T06:10:52;99759.25;;;20.90;100.00
46347;BME280;32057;47.830;19.046;2023-07-30T06:13:17;99760.91;;;20.94;100.00
46347;BME280;32057;47.830;19.046;2023-07-30T06:15:43;99759.03;;;20.98;100.00
46347;BME280;32057;47.830;19.046;2023-07-30T06:18:09;99756.22;;;21.02;100.00
46347;BME280;32057;47.830;19.046;2023-07-30T06:20:34;99751.50;;;21.12;100.00
46347;BME280;32057;47.830;19.046;2023-07-30T06:23:00;99758.44;;;21.16;100.00
46347;BME280;32057;47.830;19.046;2023-07-30T06:25:25;99763.53;;;21.22;100.00
46347;BME280;32057;47.830;19.046;2023-07-30T06:27:50;99762.44;;;21.29;100.00
46347;BME280;32057;47.830;19.046;2023-07-30T06:30:16;99766.66;;;21.35;100.00
46347;BME280;32057;47.830;19.046;2023-07-30T06:32:42;99757.78;;;21.36;100.00
46347;BME280;32057;47.830;19.046;2023-07-30T06:35:07;99759.41;;;21.40;100.00
46347;BME280;32057;47.830;19.046;2023-07-30T06:37:33;99758.38;;;21.46;100.00
46347;BME280;32057;47.830;19.046;2023-07-30T06:39:59;99746.81;;;21.48;100.00
46347;BME280;32057;47.830;19.046;2023-07-30T06:42:25;99747.56;;;21.52;100.00
46347;BME280;32057;47.830;19.046;2023-07-30T06:44:50;99751.03;;;21.54;100.00
46347;BME280;32057;47.830;19.046;2023-07-30T06:47:15;99751.03;;;21.54;100.00
46347;BME280;32057;47.830;19.046;2023-07-30T06:49:41;99763.38;;;21.55;100.00
46347;BME280;32057;47.830;19.046;2023-07-30T06:52:06;99759.09;;;21.51;100.00
46347;BME280;32057;47.830;19.046;2023-07-30T06:54:32;99760.03;;;21.48;100.00
46347;BME280;32057;47.830;19.046;2023-07-30T06:56:57;99765.34;;;21.48;100.00
46347;BME280;32057;47.830;19.046;2023-07-30T06:59:23;99757.47;;;21.47;100.00
46347;BME280;32057;47.830;19.046;2023-07-30T07:01:48;99751.09;;;21.53;100.00
46347;BME280;32057;47.830;19.046;2023-07-30T07:04:13;99756.44;;;21.51;100.00
46347;BME280;32057;47.830;19.046;2023-07-30T07:06:39;99755.47;;;21.54;100.00
46347;BME280;32057;47.830;19.046;2023-07-30T07:09:04;99753.69;;;21.54;100.00
46347;BME280;32057;47.830;19.046;2023-07-30T07:11:30;99765.28;;;21.50;100.00
46347;BME280;32057;47.830;19.046;2023-07-30T07:13:55;99753.84;;;21.50;100.00
46347;BME280;32057;47.830;19.046;2023-07-30T07:16:21;99760.22;;;21.42;100.00
46347;BME280;32057;47.830;19.046;2023-07-30T07:18:46;99767.41;;;21.39;100.00
46347;BME280;32057;47.830;19.046;2023-07-30T07:21:14;99776.34;;;21.35;100.00
46347;BME280;32057;47.830;19.046;2023-07-30T07:23:39;99783.56;;;21.31;100.00
46347;BME280;32057;47.830;19.046;2023-07-30T07:26:04;99791.56;;;21.28;100.00
46347;BME280;32057;47.830;19.046;2023-07-30T07:28:30;99795.16;;;21.27;100.00
46347;BME280;32057;47.830;19.046;2023-07-30T07:30:55;99804.97;;;21.23;100.00
46347;BME280;32057;47.830;19.046;2023-07-30T07:33:21;99815.53;;;21.23;100.00
46347;BME280;32057;47.830;19.046;2023-07-30T07:35:47;99818.31;;;21.19;100.00
46347;BME280;32057;47.830;19.046;2023-07-30T07:38:12;99829.78;;;21.19;100.00
46347;BME280;32057;47.830;19.046;2023-07-30T07:40:38;99834.31;;;21.16;100.00
46347;BME280;32057;47.830;19.046;2023-07-30T07:43:07;99832.56;;;21.15;100.00
46347;BME280;32057;47.830;19.046;2023-07-30T07:45:33;99843.22;;;21.13;100.00
46347;BME280;32057;47.830;19.046;2023-07-30T07:47:58;99842.41;;;21.11;100.00
46347;BME280;32057;47.830;19.046;2023-07-30T07:50:24;99837.09;;;21.11;100.00
46347;BME280;32057;47.830;19.046;2023-07-30T07:52:49;99837.03;;;21.13;100.00
46347;BME280;32057;47.830;19.046;2023-07-30T07:55:15;99843.16;;;21.15;100.00
46347;BME280;32057;47.830;19.046;2023-07-30T07:57:40;99848.44;;;21.15;100.00
46347;BME280;32057;47.830;19.046;2023-07-30T08:00:06;99848.44;;;21.15;100.00
46347;BME280;32057;47.830;19.046;2023-07-30T08:02:32;99846.72;;;21.14;100.00
46347;BME280;32057;47.830;19.046;2023-07-30T08:04:57;99845.84;;;21.13;100.00
46347;BME280;32057;47.830;19.046;2023-07-30T08:07:23;99856.34;;;21.16;100.00
46347;BME280;32057;47.830;19.046;2023-07-30T08:09:48;99859.78;;;21.18;100.00
46347;BME280;32057;47.830;19.046;2023-07-30T08:12:13;99865.09;;;21.18;100.00
46347;BME280;32057;47.830;19.046;2023-07-30T08:14:39;99858.75;;;21.24;100.00
46347;BME280;32057;47.830;19.046;2023-07-30T08:17:05;99859.84;;;21.17;100.00
46347;BME280;32057;47.830;19.046;2023-07-30T08:19:30;99852.97;;;21.11;100.00
46347;BME280;32057;47.830;19.046;2023-07-30T08:21:57;99857.56;;;21.04;100.00
46347;BME280;32057;47.830;19.046;2023-07-30T08:24:23;99855.06;;;21.00;100.00
46347;BME280;32057;47.830;19.046;2023-07-30T08:26:48;99863.09;;;20.97;100.00
46347;BME280;32057;47.830;19.046;2023-07-30T08:29:14;99868.22;;;21.03;100.00
46347;BME280;32057;47.830;19.046;2023-07-30T08:31:40;99865.47;;;21.06;100.00
46347;BME280;32057;47.830;19.046;2023-07-30T08:34:06;99869.19;;;20.99;100.00
46347;BME280;32057;47.830;19.046;2023-07-30T08:36:32;99869.78;;;21.08;100.00
46347;BME280;32057;47.830;19.046;2023-07-30T08:38:57;99862.47;;;21.17;100.00
46347;BME280;32057;47.830;19.046;2023-07-30T08:41:23;99875.41;;;21.27;100.00
46347;BME280;32057;47.830;19.046;2023-07-30T08:43:50;99882.41;;;21.28;100.00
46347;BME280;32057;47.830;19.046;2023-07-30T08:46:17;99883.19;;;21.32;100.00
46347;BME280;32057;47.830;19.046;2023-07-30T08:48:42;99886.75;;;21.31;100.00
46347;BME280;32057;47.830;19.046;2023-07-30T08:51:08;99885.00;;;21.30;100.00
46347;BME280;32057;47.830;19.046;2023-07-30T08:53:34;99890.41;;;21.27;100.00
46347;BME280;32057;47.830;19.046;2023-07-30T08:56:00;99879.88;;;21.25;100.00
46347;BME280;32057;47.830;19.046;2023-07-30T08:58:27;99877.25;;;21.24;100.00
46347;BME280;32057;47.830;19.046;2023-07-30T09:00:55;99864.66;;;21.04;100.00
46347;BME280;32057;47.830;19.046;2023-07-30T09:03:23;99857.16;;;20.88;100.00
46347;BME280;32057;47.830;19.046;2023-07-30T09:05:49;99855.44;;;20.87;100.00
46347;BME280;32057;47.830;19.046;2023-07-30T09:08:15;99868.84;;;20.81;100.00
46347;BME280;32057;47.830;19.046;2023-07-30T09:10:42;99858.94;;;20.88;100.00
46347;BME280;32057;47.830;19.046;2023-07-30T09:13:08;99864.16;;;20.91;100.00
46347;BME280;32057;47.830;19.046;2023-07-30T09:15:38;99860.41;;;20.98;100.00
46347;BME280;32057;47.830;19.046;2023-07-30T09:18:04;99870.13;;;20.98;100.00
46347;BME280;32057;47.830;19.046;2023-07-30T09:20:42;99868.63;;;20.89;100.00
46347;BME280;32057;47.830;19.046;2023-07-30T09:23:08;99868.31;;;20.68;100.00
46347;BME280;32057;47.830;19.046;2023-07-30T09:25:35;99872.88;;;20.63;100.00
46347;BME280;32057;47.830;19.046;2023-07-30T09:28:00;99876.59;;;20.55;100.00
46347;BME280;32057;47.830;19.046;2023-07-30T09:30:26;99873.22;;;20.51;100.00
46347;BME280;32057;47.830;19.046;2023-07-30T09:32:56;99872.31;;;20.50;100.00
46347;BME280;32057;47.830;19.046;2023-07-30T09:35:22;99869.50;;;20.57;100.00
46347;BME280;32057;47.830;19.046;2023-07-30T09:37:50;99872.22;;;20.55;100.00
46347;BME280;32057;47.830;19.046;2023-07-30T09:40:16;99868.69;;;20.55;100.00
46347;BME280;32057;47.830;19.046;2023-07-30T09:42:48;99870.38;;;20.57;100.00
46347;BME280;32057;47.830;19.046;2023-07-30T09:45:20;99863.38;;;20.55;100.00
46347;BME280;32057;47.830;19.046;2023-07-30T09:47:50;99866.00;;;20.56;100.00
46347;BME280;32057;47.830;19.046;2023-07-30T09:50:16;99870.34;;;20.59;100.00
46347;BME280;32057;47.830;19.046;2023-07-30T09:52:42;99860.66;;;20.59;100.00
46347;BME280;32057;47.830;19.046;2023-07-30T09:55:09;99853.63;;;20.57;100.00
46347;BME280;32057;47.830;19.046;2023-07-30T09:57:35;99850.97;;;20.60;100.00
46347;BME280;32057;47.830;19.046;2023-07-30T10:00:02;99848.13;;;20.66;100.00
46347;BME280;32057;47.830;19.046;2023-07-30T10:02:29;99852.38;;;20.72;100.00
46347;BME280;32057;47.830;19.046;2023-07-30T10:04:59;99838.31;;;20.71;100.00
46347;BME280;32057;47.830;19.046;2023-07-30T10:07:29;99846.09;;;20.76;100.00
46347;BME280;32057;47.830;19.046;2023-07-30T10:09:58;99854.09;;;20.73;100.00
46347;BME280;32057;47.830;19.046;2023-07-30T10:12:29;99851.53;;;20.71;100.00
46347;BME280;32057;47.830;19.046;2023-07-30T10:14:56;99853.41;;;20.66;100.00
46347;BME280;32057;47.830;19.046;2023-07-30T10:17:22;99847.50;;;20.56;100.00
46347;BME280;32057;47.830;19.046;2023-07-30T10:19:48;99845.66;;;20.60;100.00
46347;BME280;32057;47.830;19.046;2023-07-30T10:22:20;99841.28;;;20.59;100.00
46347;BME280;32057;47.830;19.046;2023-07-30T10:25:03;99842.09;;;20.61;100.00
46347;BME280;32057;47.830;19.046;2023-07-30T10:27:41;99838.31;;;20.71;100.00
46347;BME280;32057;47.830;19.046;2023-07-30T10:30:16;99839.84;;;20.78;100.00
46347;BME280;32057;47.830;19.046;2023-07-30T10:32:58;99842.28;;;20.84;100.00
46347;BME280;32057;47.830;19.046;2023-07-30T10:38:18;99848.81;;;20.73;100.00
46347;BME280;32057;47.830;19.046;2023-07-30T10:41:08;99851.81;;;20.60;100.00
46347;BME280;32057;47.830;19.046;2023-07-30T10:43:42;99843.91;;;20.59;100.00
46347;BME280;32057;47.830;19.046;2023-07-30T10:46:09;99837.06;;;20.52;100.00
46347;BME280;32057;47.830;19.046;2023-07-30T10:48:36;99845.41;;;20.36;100.00
46347;BME280;32057;47.830;19.046;2023-07-30T10:51:09;99827.00;;;20.33;100.00
46347;BME280;32057;47.830;19.046;2023-07-30T10:53:35;99817.28;;;20.35;100.00
46347;BME280;32057;47.830;19.046;2023-07-30T10:56:03;99810.16;;;20.37;100.00
46347;BME280;32057;47.830;19.046;2023-07-30T10:58:34;99816.09;;;20.45;100.00
46347;BME280;32057;47.830;19.046;2023-07-30T11:01:02;99817.91;;;20.43;100.00
46347;BME280;32057;47.830;19.046;2023-07-30T11:03:28;99822.09;;;20.50;100.00
46347;BME280;32057;47.830;19.046;2023-07-30T11:05:55;99819.91;;;20.66;100.00
46347;BME280;32057;47.830;19.046;2023-07-30T11:08:40;99825.53;;;20.85;100.00
46347;BME280;32057;47.830;19.046;2023-07-30T11:11:07;99822.56;;;20.96;100.00
46347;BME280;32057;47.830;19.046;2023-07-30T11:16:05;99836.19;;;21.12;100.00
46347;BME280;32057;47.830;19.046;2023-07-30T11:18:31;99831.53;;;20.91;100.00
46347;BME280;32057;47.830;19.046;2023-07-30T11:21:06;99830.59;;;20.93;100.00
46347;BME280;32057;47.830;19.046;2023-07-30T11:23:36;99834.47;;;20.81;100.00
46347;BME280;32057;47.830;19.046;2023-07-30T11:26:03;99831.88;;;20.80;100.00
46347;BME280;32057;47.830;19.046;2023-07-30T11:28:37;99838.66;;;20.88;100.00
46347;BME280;32057;47.830;19.046;2023-07-30T11:31:11;99835.75;;;20.98;100.00
46347;BME280;32057;47.830;19.046;2023-07-30T11:33:39;99841.84;;;21.00;100.00
46347;BME280;32057;47.830;19.046;2023-07-30T11:36:08;99836.91;;;20.89;100.00
46347;BME280;32057;47.830;19.046;2023-07-30T11:38:34;99835.16;;;20.88;100.00
46347;BME280;32057;47.830;19.046;2023-07-30T11:41:00;99831.84;;;20.81;100.00
46347;BME280;32057;47.830;19.046;2023-07-30T11:43:26;99828.88;;;20.91;100.00
46347;BME280;32057;47.830;19.046;2023-07-30T11:46:12;99836.38;;;21.06;100.00
46347;BME280;32057;47.830;19.046;2023-07-30T11:48:40;99834.53;;;21.08;100.00
46347;BME280;32057;47.830;19.046;2023-07-30T11:51:06;99841.56;;;21.09;100.00
46347;BME280;32057;47.830;19.046;2023-07-30T11:56:18;99845.09;;;20.80;100.00
46347;BME280;32057;47.830;19.046;2023-07-30T11:58:46;99846.09;;;20.76;100.00
46347;BME280;32057;47.830;19.046;2023-07-30T12:01:12;99850.56;;;20.74;100.00
46347;BME280;32057;47.830;19.046;2023-07-30T12:03:38;99851.56;;;20.69;100.00
46347;BME280;32057;47.830;19.046;2023-07-30T12:06:07;99852.59;;;20.64;100.00
46347;BME280;32057;47.830;19.046;2023-07-30T12:08:34;99855.28;;;20.62;100.00
46347;BME280;32057;47.830;19.046;2023-07-30T12:11:05;99861.91;;;20.44;100.00
46347;BME280;32057;47.830;19.046;2023-07-30T12:13:31;99861.94;;;20.12;100.00
46347;BME280;32057;47.830;19.046;2023-07-30T12:15:58;99860.97;;;20.14;100.00
46347;BME280;32057;47.830;19.046;2023-07-30T12:18:24;99856.91;;;20.01;100.00
46347;BME280;32057;47.830;19.046;2023-07-30T12:20:53;99863.16;;;19.98;100.00
46347;BME280;32057;47.830;19.046;2023-07-30T12:23:19;99856.16;;;19.97;100.00
46347;BME280;32057;47.830;19.046;2023-07-30T12:25:46;99857.81;;;20.01;100.00
46347;BME280;32057;47.830;19.046;2023-07-30T12:28:11;99855.09;;;20.03;100.00
46347;BME280;32057;47.830;19.046;2023-07-30T12:30:37;99847.31;;;19.98;100.00
46347;BME280;32057;47.830;19.046;2023-07-30T12:33:03;99841.88;;;20.04;100.00
46347;BME280;32057;47.830;19.046;2023-07-30T12:35:30;99832.94;;;20.08;100.00
46347;BME280;32057;47.830;19.046;2023-07-30T12:37:55;99825.03;;;20.08;100.00
46347;BME280;32057;47.830;19.046;2023-07-30T12:40:20;99827.44;;;20.18;100.00
46347;BME280;32057;47.830;19.046;2023-07-30T12:42:46;99823.69;;;20.25;100.00
46347;BME280;32057;47.830;19.046;2023-07-30T12:45:11;99821.78;;;20.32;100.00